createdAt,value
2018-09-05T00:00:49.505Z,18.70
2018-09-05T00:03:19.028Z,18.70
2018-09-05T00:05:47.717Z,18.70
2018-09-05T00:08:16.272Z,18.70
2018-09-05T00:10:44.905Z,18.70
2018-09-05T00:13:13.524Z,18.70
2018-09-05T00:15:42.221Z,18.60
2018-09-05T00:18:10.963Z,18.60
2018-09-05T00:20:40.142Z,18.60
2018-09-05T00:23:08.847Z,18.60
2018-09-05T00:25:37.608Z,18.50
2018-09-05T00:28:06.261Z,18.50
2018-09-05T00:30:35.000Z,18.50
2018-09-05T00:33:04.173Z,18.40
2018-09-05T00:35:32.831Z,18.40
2018-09-05T00:38:01.566Z,18.50
2018-09-05T00:40:30.467Z,18.50
2018-09-05T00:42:59.174Z,18.50
2018-09-05T00:45:27.847Z,18.50
2018-09-05T00:47:56.572Z,18.50
2018-09-05T00:50:25.212Z,18.50
2018-09-05T00:52:53.920Z,18.50
2018-09-05T00:55:22.692Z,18.50
2018-09-05T00:57:53.346Z,18.40
2018-09-05T01:00:22.038Z,18.30
2018-09-05T01:02:50.632Z,18.30
2018-09-05T01:05:19.259Z,18.30
2018-09-05T01:07:47.872Z,18.30
2018-09-05T01:10:16.581Z,18.30
2018-09-05T01:12:45.239Z,18.30
2018-09-05T01:15:13.898Z,18.30
2018-09-05T01:17:42.503Z,18.30
2018-09-05T01:20:11.223Z,18.30
2018-09-05T01:22:39.961Z,18.30
2018-09-05T01:25:08.555Z,18.30
2018-09-05T01:27:37.305Z,18.30
2018-09-05T01:30:06.344Z,18.20
2018-09-05T01:32:35.004Z,18.20
2018-09-05T01:35:03.707Z,18.10
2018-09-05T01:37:32.534Z,18.10
2018-09-05T01:40:01.251Z,18.10
2018-09-05T01:42:29.867Z,18.10
2018-09-05T01:44:58.512Z,18.10
2018-09-05T01:47:27.075Z,18.10
2018-09-05T01:49:55.832Z,18.10
2018-09-05T01:52:24.414Z,18.00
2018-09-05T01:54:53.069Z,18.00
2018-09-05T01:57:21.755Z,18.00
2018-09-05T01:59:50.410Z,18.00
2018-09-05T02:02:19.765Z,17.90
2018-09-05T02:04:48.397Z,17.90
2018-09-05T02:07:16.972Z,18.00
2018-09-05T02:09:45.586Z,17.90
2018-09-05T02:12:14.828Z,17.80
2018-09-05T02:14:43.505Z,17.70
2018-09-05T02:17:12.311Z,17.70
2018-09-05T02:19:41.062Z,17.70
2018-09-05T02:22:09.749Z,17.70
2018-09-05T02:24:38.435Z,17.70
2018-09-05T02:27:07.259Z,17.60
2018-09-05T02:29:35.906Z,17.60
2018-09-05T02:32:04.648Z,17.60
2018-09-05T02:34:33.271Z,17.60
2018-09-05T02:37:02.018Z,17.60
2018-09-05T02:39:30.593Z,17.60
2018-09-05T02:41:59.284Z,17.50
2018-09-05T02:44:28.013Z,17.50
2018-09-05T02:46:59.489Z,17.40
2018-09-05T02:49:28.138Z,17.40
2018-09-05T02:51:56.751Z,17.40
2018-09-05T02:54:25.580Z,17.40
2018-09-05T02:56:54.232Z,17.40
2018-09-05T02:59:22.947Z,17.40
2018-09-05T03:01:51.607Z,17.30
2018-09-05T03:04:20.395Z,17.30
2018-09-05T03:06:49.003Z,17.30
2018-09-05T03:09:18.070Z,17.20
2018-09-05T03:11:47.447Z,17.20
2018-09-05T03:14:16.768Z,17.20
2018-09-05T03:16:45.461Z,17.30
2018-09-05T03:19:14.102Z,17.20
2018-09-05T03:21:42.936Z,17.10
2018-09-05T03:24:11.629Z,17.00
2018-09-05T03:26:40.396Z,17.00
2018-09-05T03:29:09.043Z,17.00
2018-09-05T03:31:37.930Z,17.00
2018-09-05T03:34:06.733Z,16.90
2018-09-05T03:36:35.491Z,16.90
2018-09-05T03:39:05.466Z,16.90
2018-09-05T03:41:34.082Z,16.90
2018-09-05T03:44:02.695Z,16.90
2018-09-05T03:46:31.559Z,16.90
2018-09-05T03:49:00.157Z,16.90
2018-09-05T03:51:28.935Z,16.90
2018-09-05T03:53:57.621Z,16.90
2018-09-05T03:56:26.332Z,16.80
2018-09-05T03:58:55.064Z,16.90
2018-09-05T04:01:23.789Z,16.80
2018-09-05T04:03:52.430Z,16.80
2018-09-05T04:06:22.874Z,16.80
2018-09-05T04:08:52.909Z,16.70
2018-09-05T04:11:21.580Z,16.70
2018-09-05T04:13:50.924Z,16.70
2018-09-05T04:16:19.702Z,16.70
2018-09-05T04:18:49.451Z,16.60
2018-09-05T04:21:18.285Z,16.70
2018-09-05T04:23:48.787Z,16.70
2018-09-05T04:26:18.657Z,16.70
2018-09-05T04:28:47.609Z,16.70
2018-09-05T04:31:16.592Z,16.70
2018-09-05T04:33:45.250Z,16.70
2018-09-05T04:36:14.886Z,16.60
2018-09-05T04:38:44.067Z,16.70
2018-09-05T04:41:12.851Z,16.70
2018-09-05T04:43:41.479Z,16.60
2018-09-05T04:46:10.196Z,16.60
2018-09-05T04:48:38.836Z,16.60
2018-09-05T04:51:07.462Z,16.50
2018-09-05T04:53:36.179Z,16.50
2018-09-05T04:56:05.225Z,16.40
2018-09-05T04:58:34.129Z,16.40
2018-09-05T05:01:02.750Z,16.40
2018-09-05T05:03:31.449Z,16.40
2018-09-05T05:06:00.082Z,16.40
2018-09-05T05:08:28.720Z,16.50
2018-09-05T05:10:57.428Z,16.50
2018-09-05T05:13:26.131Z,16.50
2018-09-05T05:15:54.740Z,16.50
2018-09-05T05:18:23.480Z,16.50
2018-09-05T05:20:52.105Z,16.60
2018-09-05T05:23:20.746Z,16.60
2018-09-05T05:25:49.417Z,16.60
2018-09-05T05:28:18.072Z,16.60
2018-09-05T05:30:46.772Z,16.70
2018-09-05T05:33:15.505Z,16.70
2018-09-05T05:35:44.171Z,16.80
2018-09-05T05:38:12.875Z,16.80
2018-09-05T05:40:41.620Z,16.90
2018-09-05T05:43:10.417Z,17.10
2018-09-05T05:45:39.019Z,17.20
2018-09-05T05:48:07.677Z,17.30
2018-09-05T05:50:36.293Z,17.30
2018-09-05T05:53:05.269Z,17.40
2018-09-05T05:55:33.955Z,17.40
2018-09-05T05:58:02.630Z,17.40
2018-09-05T06:00:31.308Z,17.50
2018-09-05T06:03:00.018Z,17.50
2018-09-05T06:05:28.832Z,17.60
2018-09-05T06:07:57.652Z,17.80
2018-09-05T06:10:27.902Z,18.30
2018-09-05T06:12:58.687Z,19.00
2018-09-05T06:15:28.527Z,19.20
2018-09-05T06:17:57.627Z,19.40
2018-09-05T06:20:26.444Z,19.40
2018-09-05T06:22:55.240Z,19.20
2018-09-05T06:25:24.122Z,19.10
2018-09-05T06:27:52.789Z,19.10
2018-09-05T06:30:21.562Z,19.00
2018-09-05T06:32:50.495Z,18.90
2018-09-05T06:35:19.379Z,19.00
2018-09-05T06:37:48.142Z,19.10
2018-09-05T06:40:16.911Z,19.00
2018-09-05T06:42:45.875Z,18.90
2018-09-05T06:45:14.576Z,18.90
2018-09-05T06:47:43.393Z,19.00
2018-09-05T06:50:12.081Z,19.00
2018-09-05T06:52:40.899Z,19.10
2018-09-05T06:55:09.623Z,19.10
2018-09-05T06:57:38.361Z,19.00
2018-09-05T07:00:07.965Z,19.10
2018-09-05T07:02:36.673Z,19.20
2018-09-05T07:05:05.355Z,19.20
2018-09-05T07:07:34.313Z,19.40
2018-09-05T07:10:03.324Z,19.50
2018-09-05T07:12:31.935Z,19.60
2018-09-05T07:15:00.652Z,19.70
2018-09-05T07:17:29.328Z,19.80
2018-09-05T07:19:58.022Z,19.80
2018-09-05T07:22:26.715Z,19.90
2018-09-05T07:24:55.353Z,19.90
2018-09-05T07:27:24.028Z,20.10
2018-09-05T07:29:52.661Z,20.20
2018-09-05T07:32:21.366Z,20.30
2018-09-05T07:34:50.399Z,20.40
2018-09-05T07:37:19.100Z,20.40
2018-09-05T07:39:47.794Z,20.50
2018-09-05T07:42:16.469Z,20.60
2018-09-05T07:44:45.094Z,20.70
2018-09-05T07:47:13.833Z,20.80
2018-09-05T07:49:42.458Z,20.80
2018-09-05T07:52:11.210Z,20.90
2018-09-05T07:54:39.865Z,21.00
2018-09-05T07:57:08.591Z,21.00
2018-09-05T07:59:37.292Z,21.10
2018-09-05T08:02:06.095Z,21.20
2018-09-05T08:04:34.734Z,21.20
2018-09-05T08:07:03.520Z,21.20
2018-09-05T08:09:32.251Z,21.30
2018-09-05T08:12:00.852Z,21.30
2018-09-05T08:14:29.548Z,21.30
2018-09-05T08:16:58.439Z,21.40
2018-09-05T08:19:27.161Z,21.50
2018-09-05T08:21:55.919Z,21.60
2018-09-05T08:24:24.569Z,21.60
2018-09-05T08:26:53.380Z,21.70
2018-09-05T08:29:21.979Z,21.80
2018-09-05T08:31:50.693Z,21.80
2018-09-05T08:34:19.570Z,21.90
2018-09-05T08:36:48.614Z,21.90
2018-09-05T08:39:17.449Z,22.00
2018-09-05T08:41:46.543Z,22.10
2018-09-05T08:44:15.336Z,22.20
2018-09-05T08:46:44.437Z,22.30
2018-09-05T08:49:13.084Z,22.40
2018-09-05T08:51:41.803Z,22.50
2018-09-05T08:54:10.595Z,22.50
2018-09-05T08:56:39.205Z,22.60
2018-09-05T08:59:07.837Z,22.60
2018-09-05T09:01:37.135Z,22.70
2018-09-05T09:04:05.805Z,22.70
2018-09-05T09:06:34.464Z,22.80
2018-09-05T09:09:03.233Z,22.90
2018-09-05T09:11:32.128Z,23.10
2018-09-05T09:14:00.814Z,23.10
2018-09-05T09:16:29.519Z,23.10
2018-09-05T09:18:58.230Z,23.30
2018-09-05T09:21:26.899Z,23.20
2018-09-05T09:23:55.726Z,23.30
2018-09-05T09:26:24.376Z,23.30
2018-09-05T09:28:52.996Z,23.30
2018-09-05T09:31:21.669Z,23.40
2018-09-05T09:33:50.494Z,23.50
2018-09-05T09:36:19.070Z,23.40
2018-09-05T09:38:47.955Z,23.50
2018-09-05T09:41:16.560Z,23.60
2018-09-05T09:43:45.170Z,23.70
2018-09-05T09:46:13.842Z,23.70
2018-09-05T09:48:42.481Z,23.70
2018-09-05T09:51:11.131Z,23.80
2018-09-05T09:53:39.771Z,23.90
2018-09-05T09:56:08.398Z,24.00
2018-09-05T09:58:37.048Z,24.10
2018-09-05T10:01:11.239Z,24.30
2018-09-05T10:03:45.354Z,24.30
2018-09-05T10:06:22.541Z,24.40
2018-09-05T10:08:56.593Z,24.50
2018-09-05T10:12:28.211Z,24.60
2018-09-05T10:15:01.823Z,24.60
2018-09-05T10:17:37.670Z,24.60
2018-09-05T10:20:06.737Z,24.70
2018-09-05T10:22:35.345Z,24.70
2018-09-05T10:25:04.130Z,24.70
2018-09-05T10:27:32.776Z,24.80
2018-09-05T10:30:01.402Z,24.80
2018-09-05T10:32:30.064Z,24.80
2018-09-05T10:34:58.857Z,25.00
2018-09-05T10:37:27.717Z,25.10
2018-09-05T10:39:56.627Z,25.20
2018-09-05T10:42:25.225Z,25.20
2018-09-05T10:44:53.956Z,25.30
2018-09-05T10:47:22.607Z,25.40
2018-09-05T10:49:51.350Z,25.50
2018-09-05T10:52:19.922Z,25.60
2018-09-05T10:54:48.603Z,25.70
2018-09-05T10:57:17.315Z,25.70
2018-09-05T10:59:46.086Z,25.70
2018-09-05T11:02:15.048Z,25.80
2018-09-05T11:04:43.904Z,25.70
2018-09-05T11:07:12.810Z,25.70
2018-09-05T11:09:41.481Z,25.70
2018-09-05T11:12:10.187Z,25.70
2018-09-05T11:14:38.812Z,25.70
2018-09-05T11:17:07.498Z,25.70
2018-09-05T11:19:36.239Z,25.80
2018-09-05T11:22:05.025Z,25.90
2018-09-05T11:24:33.625Z,26.00
2018-09-05T11:27:02.296Z,26.00
2018-09-05T11:29:30.942Z,26.00
2018-09-05T11:32:00.586Z,26.00
2018-09-05T11:34:29.170Z,26.10
2018-09-05T11:36:58.577Z,26.10
2018-09-05T11:39:27.187Z,26.10
2018-09-05T11:41:57.457Z,26.10
2018-09-05T11:44:26.107Z,25.90
2018-09-05T11:46:54.733Z,25.90
2018-09-05T11:49:23.477Z,26.00
2018-09-05T11:51:52.317Z,26.10
2018-09-05T11:54:20.975Z,26.20
2018-09-05T11:56:49.659Z,26.20
2018-09-05T11:59:18.222Z,26.20
2018-09-05T12:01:46.900Z,26.30
2018-09-05T12:04:15.574Z,26.40
2018-09-05T12:06:44.302Z,26.40
2018-09-05T12:09:13.484Z,26.50
2018-09-05T12:11:42.394Z,26.50
2018-09-05T12:14:11.118Z,26.40
2018-09-05T12:16:39.786Z,26.40
2018-09-05T12:19:08.541Z,26.50
2018-09-05T12:21:37.410Z,26.60
2018-09-05T12:24:06.124Z,26.60
2018-09-05T12:26:35.375Z,26.60
2018-09-05T12:29:06.602Z,26.60
2018-09-05T12:31:35.238Z,26.60
2018-09-05T12:34:04.023Z,26.60
2018-09-05T12:36:32.590Z,26.70
2018-09-05T12:39:01.583Z,26.80
2018-09-05T12:41:30.247Z,26.90
2018-09-05T12:43:59.088Z,27.00
2018-09-05T12:46:27.666Z,27.00
2018-09-05T12:48:56.325Z,27.10
2018-09-05T12:51:24.934Z,27.20
2018-09-05T12:53:53.657Z,27.20
2018-09-05T12:56:22.230Z,27.20
2018-09-05T12:58:50.927Z,27.10
2018-09-05T13:01:19.622Z,27.10
2018-09-05T13:03:48.439Z,27.20
2018-09-05T13:06:17.055Z,27.20
2018-09-05T13:08:45.795Z,27.20
2018-09-05T13:11:14.837Z,27.20
2018-09-05T13:13:43.424Z,27.10
2018-09-05T13:16:12.123Z,27.20
2018-09-05T13:18:40.787Z,27.20
2018-09-05T13:21:09.458Z,27.30
2018-09-05T13:23:38.230Z,27.40
2018-09-05T13:26:07.074Z,27.40
2018-09-05T13:28:35.793Z,27.40
2018-09-05T13:31:04.964Z,27.40
2018-09-05T13:33:33.647Z,27.40
2018-09-05T13:36:02.563Z,27.40
2018-09-05T13:38:31.164Z,27.50
2018-09-05T13:40:59.815Z,27.50
2018-09-05T13:43:28.441Z,27.60
2018-09-05T13:45:57.108Z,27.50
2018-09-05T13:48:25.748Z,27.60
2018-09-05T13:50:54.491Z,27.50
2018-09-05T13:53:23.255Z,27.60
2018-09-05T13:55:51.973Z,27.60
2018-09-05T13:58:20.725Z,27.70
2018-09-05T14:00:49.387Z,27.60
2018-09-05T14:03:18.040Z,27.50
2018-09-05T14:05:46.665Z,27.40
2018-09-05T14:08:15.311Z,27.30
2018-09-05T14:10:43.921Z,27.30
2018-09-05T14:13:12.599Z,27.30
2018-09-05T14:15:41.259Z,27.30
2018-09-05T14:18:10.299Z,27.30
2018-09-05T14:20:39.167Z,27.30
2018-09-05T14:23:07.883Z,27.30
2018-09-05T14:25:36.594Z,27.20
2018-09-05T14:28:05.408Z,27.10
2018-09-05T14:30:33.966Z,27.10
2018-09-05T14:33:02.604Z,27.10
2018-09-05T14:35:31.223Z,27.10
2018-09-05T14:38:00.275Z,27.10
2018-09-05T14:40:28.914Z,27.10
2018-09-05T14:42:57.485Z,27.10
2018-09-05T14:45:26.081Z,27.20
2018-09-05T14:47:54.727Z,27.10
2018-09-05T14:50:23.364Z,27.00
2018-09-05T14:52:51.960Z,27.00
2018-09-05T14:55:20.569Z,27.10
2018-09-05T14:57:49.742Z,27.00
2018-09-05T15:00:18.414Z,27.00
2018-09-05T15:02:47.189Z,27.10
2018-09-05T15:05:15.846Z,27.20
2018-09-05T15:07:48.514Z,27.20
2018-09-05T15:10:17.580Z,27.20
2018-09-05T15:12:46.746Z,27.00
2018-09-05T15:15:16.437Z,27.00
2018-09-05T15:17:46.267Z,26.90
2018-09-05T15:20:15.224Z,26.90
2018-09-05T15:22:51.040Z,26.90
2018-09-05T15:25:19.672Z,26.90
2018-09-05T15:27:48.711Z,26.90
2018-09-05T15:30:18.117Z,27.00
2018-09-05T15:32:49.900Z,27.00
2018-09-05T15:35:32.000Z,27.00
2018-09-05T15:38:00.912Z,26.90
2018-09-05T15:40:29.604Z,26.80
2018-09-05T15:42:58.408Z,26.60
2018-09-05T15:45:28.082Z,26.60
2018-09-05T15:47:57.137Z,26.60
2018-09-05T15:50:26.625Z,26.70
2018-09-05T15:52:55.255Z,26.60
2018-09-05T15:55:24.058Z,26.60
2018-09-05T15:57:52.794Z,26.60
2018-09-05T16:00:21.467Z,26.60
2018-09-05T16:02:50.281Z,26.60
2018-09-05T16:05:19.453Z,26.60
2018-09-05T16:07:48.104Z,26.60
2018-09-05T16:10:16.778Z,26.60
2018-09-05T16:12:45.672Z,26.50
2018-09-05T16:15:14.516Z,26.50
2018-09-05T16:17:43.554Z,26.50
2018-09-05T16:20:12.366Z,26.40
2018-09-05T16:22:41.023Z,26.40
2018-09-05T16:25:09.873Z,26.40
2018-09-05T16:27:38.715Z,26.40
2018-09-05T16:30:07.611Z,26.40
2018-09-05T16:32:36.490Z,26.40
2018-09-05T16:35:05.263Z,26.30
2018-09-05T16:37:34.074Z,26.20
2018-09-05T16:40:02.687Z,26.20
2018-09-05T16:42:31.549Z,26.20
2018-09-05T16:45:00.854Z,26.20
2018-09-05T16:47:29.822Z,26.10
2018-09-05T16:49:58.478Z,25.90
2018-09-05T16:52:32.267Z,25.90
2018-09-05T16:55:00.993Z,26.00
2018-09-05T16:57:30.120Z,25.90
2018-09-05T16:59:58.906Z,25.80
2018-09-05T17:02:27.666Z,25.80
2018-09-05T17:04:56.992Z,25.70
2018-09-05T17:07:26.236Z,25.60
2018-09-05T17:09:55.008Z,25.60
2018-09-05T17:12:24.249Z,25.50
2018-09-05T17:14:52.869Z,25.40
2018-09-05T17:17:21.643Z,25.40
2018-09-05T17:19:50.443Z,25.30
2018-09-05T17:22:20.390Z,25.20
2018-09-05T17:24:49.180Z,25.10
2018-09-05T17:27:17.957Z,25.10
2018-09-05T17:29:46.754Z,24.90
2018-09-05T17:32:15.629Z,24.80
2018-09-05T17:34:44.420Z,24.80
2018-09-05T17:37:13.217Z,24.70
2018-09-05T17:39:41.938Z,24.70
2018-09-05T17:42:10.687Z,24.60
2018-09-05T17:44:39.386Z,24.50
2018-09-05T17:47:08.104Z,24.40
2018-09-05T17:49:36.775Z,24.30
2018-09-05T17:52:05.406Z,24.30
2018-09-05T17:54:34.149Z,24.20
2018-09-05T17:57:02.963Z,24.20
2018-09-05T17:59:31.622Z,24.10
2018-09-05T18:02:00.642Z,24.00
2018-09-05T18:04:29.465Z,23.90
2018-09-05T18:06:58.062Z,23.80
2018-09-05T18:09:27.504Z,23.70
2018-09-05T18:11:56.907Z,23.60
2018-09-05T18:14:25.690Z,23.50
2018-09-05T18:16:54.414Z,23.50
2018-09-05T18:19:23.079Z,23.40
2018-09-05T18:21:51.772Z,23.30
2018-09-05T18:24:20.561Z,23.30
2018-09-05T18:26:49.264Z,23.20
2018-09-05T18:29:17.999Z,23.20
2018-09-05T18:31:47.265Z,23.10
2018-09-05T18:34:15.997Z,23.00
2018-09-05T18:36:44.593Z,22.90
2018-09-05T18:39:13.258Z,22.90
2018-09-05T18:41:42.519Z,22.90
2018-09-05T18:44:11.176Z,22.80
2018-09-05T18:46:39.951Z,22.70
2018-09-05T18:49:15.342Z,22.60
2018-09-05T18:51:43.989Z,22.60
2018-09-05T18:54:12.774Z,22.50
2018-09-05T18:56:41.389Z,22.40
2018-09-05T18:59:10.717Z,22.50
2018-09-05T19:01:39.387Z,22.40
2018-09-05T19:04:08.059Z,22.30
2018-09-05T19:06:36.847Z,22.30
2018-09-05T19:09:08.578Z,22.30
2018-09-05T19:11:37.310Z,22.20
2018-09-05T19:14:06.120Z,22.10
2018-09-05T19:16:36.095Z,22.10
2018-09-05T19:19:04.826Z,22.10
2018-09-05T19:21:33.744Z,22.00
2018-09-05T19:24:02.395Z,22.00
2018-09-05T19:26:31.615Z,21.90
2018-09-05T19:29:00.331Z,21.90
2018-09-05T19:31:29.138Z,21.90
2018-09-05T19:33:58.151Z,21.90
2018-09-05T19:36:26.963Z,21.80
2018-09-05T19:38:55.698Z,21.80
2018-09-05T19:41:25.039Z,21.70
2018-09-05T19:43:53.823Z,21.70
2018-09-05T19:46:22.593Z,21.60
2018-09-05T19:48:51.458Z,21.60
2018-09-05T19:51:20.087Z,21.50
2018-09-05T19:53:48.754Z,21.50
2018-09-05T19:56:17.989Z,21.30
2018-09-05T19:58:46.773Z,21.40
2018-09-05T20:01:15.479Z,21.30
2018-09-05T20:03:44.088Z,21.30
2018-09-05T20:06:12.756Z,21.30
2018-09-05T20:08:41.513Z,21.30
2018-09-05T20:11:10.169Z,21.20
2018-09-05T20:13:39.095Z,21.20
2018-09-05T20:16:07.991Z,21.10
2018-09-05T20:18:36.686Z,21.10
2018-09-05T20:21:05.336Z,21.00
2018-09-05T20:23:34.020Z,21.00
2018-09-05T20:26:02.743Z,21.00
2018-09-05T20:28:31.366Z,20.90
2018-09-05T20:31:00.011Z,20.90
2018-09-05T20:33:28.589Z,20.80
2018-09-05T20:35:57.193Z,20.80
2018-09-05T20:38:25.788Z,20.70
2018-09-05T20:40:54.459Z,20.70
2018-09-05T20:43:23.110Z,20.70
2018-09-05T20:45:51.802Z,20.60
2018-09-05T20:48:20.405Z,20.60
2018-09-05T20:50:48.986Z,20.50
2018-09-05T20:53:17.748Z,20.40
2018-09-05T20:55:46.510Z,20.40
2018-09-05T20:58:15.325Z,20.40
2018-09-05T21:00:44.170Z,20.40
2018-09-05T21:03:12.787Z,20.40
2018-09-05T21:05:41.647Z,20.40
2018-09-05T21:08:11.127Z,20.30
2018-09-05T21:10:39.738Z,20.30
2018-09-05T21:13:08.369Z,20.30
2018-09-05T21:15:37.041Z,20.20
2018-09-05T21:18:05.976Z,20.20
2018-09-05T21:20:34.461Z,20.20
2018-09-05T21:23:03.090Z,20.10
2018-09-05T21:25:31.723Z,20.10
2018-09-05T21:28:00.267Z,20.10
2018-09-05T21:30:28.871Z,20.00
2018-09-05T21:32:57.447Z,20.00
2018-09-05T21:35:26.023Z,19.90
2018-09-05T21:37:54.601Z,19.90
2018-09-05T21:40:23.190Z,19.90
2018-09-05T21:42:51.836Z,19.80
2018-09-05T21:45:20.559Z,19.80
2018-09-05T21:47:49.265Z,19.80
2018-09-05T21:50:17.929Z,19.70
2018-09-05T21:52:46.619Z,19.70
2018-09-05T21:55:15.540Z,19.60
2018-09-05T21:57:44.154Z,19.60
2018-09-05T22:00:12.780Z,19.50
2018-09-05T22:02:41.411Z,19.60
2018-09-05T22:05:10.001Z,19.50
2018-09-05T22:07:38.607Z,19.40
2018-09-05T22:10:07.243Z,19.50
2018-09-05T22:12:36.269Z,19.40
2018-09-05T22:15:05.675Z,19.40
2018-09-05T22:17:34.331Z,19.40
2018-09-05T22:20:02.937Z,19.30
2018-09-05T22:22:34.334Z,19.30
2018-09-05T22:25:02.955Z,19.20
2018-09-05T22:27:31.708Z,19.30
2018-09-05T22:30:00.814Z,19.20
2018-09-05T22:32:29.440Z,19.20
2018-09-05T22:34:58.128Z,19.20
2018-09-05T22:37:27.752Z,19.10
2018-09-05T22:39:56.375Z,19.10
2018-09-05T22:42:24.975Z,19.10
2018-09-05T22:45:04.926Z,19.00
2018-09-05T22:47:44.684Z,19.00
2018-09-05T22:51:26.209Z,19.00
2018-09-05T22:54:11.428Z,18.90
2018-09-05T22:56:58.306Z,18.80
2018-09-05T23:02:12.898Z,18.80
2018-09-05T23:04:54.084Z,18.80
2018-09-05T23:07:29.596Z,18.60
2018-09-05T23:12:12.672Z,18.50
2018-09-05T23:14:56.535Z,18.50
2018-09-05T23:17:36.844Z,18.50
2018-09-05T23:21:19.676Z,18.50
2018-09-05T23:24:16.133Z,18.50
2018-09-05T23:26:45.027Z,18.40
2018-09-05T23:29:13.820Z,18.40
2018-09-05T23:31:43.012Z,18.30
2018-09-05T23:34:11.596Z,18.30
2018-09-05T23:36:41.202Z,18.40
2018-09-05T23:39:10.708Z,18.50
2018-09-05T23:41:39.624Z,18.50
2018-09-05T23:44:08.405Z,18.50
2018-09-05T23:46:37.790Z,18.40
2018-09-05T23:49:06.635Z,18.40
2018-09-05T23:51:35.491Z,18.40
2018-09-05T23:54:07.948Z,18.40
2018-09-05T23:56:37.747Z,18.40
2018-09-05T23:59:07.619Z,18.40
